sensor_id;sensor_type;location;lat;lon;timestamp;P1;durP1;ratioP1;P2;durP2;ratioP2
78989;SDS011;68390;52.130;21.218;2023-06-10T00:00:42;11.95;;;10.75;;
78989;SDS011;68390;52.130;21.218;2023-06-10T00:03:07;11.68;;;9.48;;
78989;SDS011;68390;52.130;21.218;2023-06-10T00:05:34;12.18;;;9.60;;
78989;SDS011;68390;52.130;21.218;2023-06-10T00:08:00;11.52;;;9.10;;
78989;SDS011;68390;52.130;21.218;2023-06-10T00:10:27;10.32;;;8.10;;
78989;SDS011;68390;52.130;21.218;2023-06-10T00:12:52;11.63;;;8.40;;
78989;SDS011;68390;52.130;21.218;2023-06-10T00:15:17;12.40;;;9.70;;
78989;SDS011;68390;52.130;21.218;2023-06-10T00:17:43;10.35;;;9.15;;
78989;SDS011;68390;52.130;21.218;2023-06-10T00:20:09;12.70;;;9.30;;
78989;SDS011;68390;52.130;21.218;2023-06-10T00:22:38;9.52;;;7.85;;
78989;SDS011;68390;52.130;21.218;2023-06-10T00:25:07;10.68;;;8.68;;
78989;SDS011;68390;52.130;21.218;2023-06-10T00:27:32;11.85;;;8.98;;
78989;SDS011;68390;52.130;21.218;2023-06-10T00:30:03;12.57;;;9.88;;
78989;SDS011;68390;52.130;21.218;2023-06-10T00:32:31;11.95;;;9.05;;
78989;SDS011;68390;52.130;21.218;2023-06-10T00:34:57;10.75;;;9.65;;
78989;SDS011;68390;52.130;21.218;2023-06-10T00:37:22;11.43;;;9.60;;
78989;SDS011;68390;52.130;21.218;2023-06-10T00:39:48;13.65;;;10.23;;
78989;SDS011;68390;52.130;21.218;2023-06-10T00:42:13;8.65;;;7.57;;
78989;SDS011;68390;52.130;21.218;2023-06-10T00:44:38;12.48;;;10.10;;
78989;SDS011;68390;52.130;21.218;2023-06-10T00:47:04;11.23;;;8.57;;
78989;SDS011;68390;52.130;21.218;2023-06-10T00:49:30;11.77;;;8.70;;
78989;SDS011;68390;52.130;21.218;2023-06-10T00:51:56;11.77;;;9.40;;
78989;SDS011;68390;52.130;21.218;2023-06-10T00:54:22;10.90;;;9.07;;
78989;SDS011;68390;52.130;21.218;2023-06-10T00:56:47;10.98;;;8.73;;
78989;SDS011;68390;52.130;21.218;2023-06-10T00:59:13;10.75;;;9.25;;
78989;SDS011;68390;52.130;21.218;2023-06-10T01:01:40;13.30;;;8.48;;
78989;SDS011;68390;52.130;21.218;2023-06-10T01:04:06;11.32;;;8.65;;
78989;SDS011;68390;52.130;21.218;2023-06-10T01:09:38;11.95;;;8.05;;
78989;SDS011;68390;52.130;21.218;2023-06-10T01:12:19;9.95;;;7.65;;
78989;SDS011;68390;52.130;21.218;2023-06-10T01:14:52;10.52;;;8.35;;
78989;SDS011;68390;52.130;21.218;2023-06-10T01:17:17;10.35;;;8.25;;
78989;SDS011;68390;52.130;21.218;2023-06-10T01:19:43;9.10;;;7.15;;
78989;SDS011;68390;52.130;21.218;2023-06-10T01:22:09;8.85;;;7.03;;
78989;SDS011;68390;52.130;21.218;2023-06-10T01:24:35;9.30;;;7.72;;
78989;SDS011;68390;52.130;21.218;2023-06-10T01:27:03;9.20;;;8.20;;
78989;SDS011;68390;52.130;21.218;2023-06-10T01:29:40;9.95;;;7.75;;
78989;SDS011;68390;52.130;21.218;2023-06-10T01:32:17;8.73;;;7.00;;
78989;SDS011;68390;52.130;21.218;2023-06-10T01:34:46;13.30;;;7.78;;
78989;SDS011;68390;52.130;21.218;2023-06-10T01:37:16;10.13;;;7.38;;
78989;SDS011;68390;52.130;21.218;2023-06-10T01:39:45;10.20;;;7.57;;
78989;SDS011;68390;52.130;21.218;2023-06-10T01:42:12;12.55;;;8.40;;
78989;SDS011;68390;52.130;21.218;2023-06-10T01:44:40;10.23;;;7.95;;
78989;SDS011;68390;52.130;21.218;2023-06-10T01:49:32;11.25;;;7.60;;
78989;SDS011;68390;52.130;21.218;2023-06-10T01:51:57;11.05;;;8.15;;
78989;SDS011;68390;52.130;21.218;2023-06-10T01:54:23;9.85;;;7.05;;
78989;SDS011;68390;52.130;21.218;2023-06-10T01:56:48;9.48;;;8.02;;
78989;SDS011;68390;52.130;21.218;2023-06-10T01:59:33;11.57;;;8.48;;
78989;SDS011;68390;52.130;21.218;2023-06-10T02:01:59;9.55;;;7.45;;
78989;SDS011;68390;52.130;21.218;2023-06-10T02:04:25;10.48;;;7.38;;
78989;SDS011;68390;52.130;21.218;2023-06-10T02:06:50;12.40;;;7.13;;
78989;SDS011;68390;52.130;21.218;2023-06-10T02:09:15;9.13;;;7.63;;
78989;SDS011;68390;52.130;21.218;2023-06-10T02:11:41;9.25;;;7.07;;
78989;SDS011;68390;52.130;21.218;2023-06-10T02:14:06;9.93;;;7.43;;
78989;SDS011;68390;52.130;21.218;2023-06-10T02:16:32;7.80;;;6.38;;
78989;SDS011;68390;52.130;21.218;2023-06-10T02:18:57;9.25;;;6.80;;
78989;SDS011;68390;52.130;21.218;2023-06-10T02:21:23;11.60;;;7.80;;
78989;SDS011;68390;52.130;21.218;2023-06-10T02:23:49;8.50;;;6.70;;
78989;SDS011;68390;52.130;21.218;2023-06-10T02:26:14;9.63;;;5.97;;
78989;SDS011;68390;52.130;21.218;2023-06-10T02:28:43;12.40;;;6.78;;
78989;SDS011;68390;52.130;21.218;2023-06-10T02:31:08;8.70;;;6.18;;
78989;SDS011;68390;52.130;21.218;2023-06-10T02:33:34;8.13;;;5.57;;
78989;SDS011;68390;52.130;21.218;2023-06-10T02:35:59;9.93;;;5.60;;
78989;SDS011;68390;52.130;21.218;2023-06-10T02:38:25;8.38;;;5.55;;
78989;SDS011;68390;52.130;21.218;2023-06-10T02:40:50;6.57;;;5.00;;
78989;SDS011;68390;52.130;21.218;2023-06-10T02:43:15;9.23;;;5.53;;
78989;SDS011;68390;52.130;21.218;2023-06-10T02:45:41;7.10;;;5.47;;
78989;SDS011;68390;52.130;21.218;2023-06-10T02:48:06;8.15;;;6.03;;
78989;SDS011;68390;52.130;21.218;2023-06-10T02:50:32;8.50;;;5.47;;
78989;SDS011;68390;52.130;21.218;2023-06-10T02:52:57;8.20;;;4.93;;
78989;SDS011;68390;52.130;21.218;2023-06-10T02:55:23;8.93;;;5.32;;
78989;SDS011;68390;52.130;21.218;2023-06-10T02:57:51;8.60;;;5.45;;
78989;SDS011;68390;52.130;21.218;2023-06-10T03:00:17;8.50;;;5.10;;
78989;SDS011;68390;52.130;21.218;2023-06-10T03:02:45;7.85;;;5.50;;
78989;SDS011;68390;52.130;21.218;2023-06-10T03:05:11;7.90;;;5.15;;
78989;SDS011;68390;52.130;21.218;2023-06-10T03:07:38;7.28;;;5.47;;
78989;SDS011;68390;52.130;21.218;2023-06-10T03:10:05;8.30;;;5.00;;
78989;SDS011;68390;52.130;21.218;2023-06-10T03:12:31;9.57;;;4.95;;
78989;SDS011;68390;52.130;21.218;2023-06-10T03:14:57;9.60;;;5.45;;
78989;SDS011;68390;52.130;21.218;2023-06-10T03:17:22;7.15;;;4.80;;
78989;SDS011;68390;52.130;21.218;2023-06-10T03:19:48;7.00;;;4.70;;
78989;SDS011;68390;52.130;21.218;2023-06-10T03:22:14;8.85;;;4.70;;
78989;SDS011;68390;52.130;21.218;2023-06-10T03:24:41;11.23;;;5.50;;
78989;SDS011;68390;52.130;21.218;2023-06-10T03:27:11;9.07;;;4.82;;
78989;SDS011;68390;52.130;21.218;2023-06-10T03:29:38;8.85;;;5.20;;
78989;SDS011;68390;52.130;21.218;2023-06-10T03:32:04;8.48;;;5.43;;
78989;SDS011;68390;52.130;21.218;2023-06-10T03:34:31;20.42;;;5.68;;
78989;SDS011;68390;52.130;21.218;2023-06-10T03:36:56;10.80;;;5.47;;
78989;SDS011;68390;52.130;21.218;2023-06-10T03:39:22;7.65;;;4.90;;
78989;SDS011;68390;52.130;21.218;2023-06-10T03:41:48;7.88;;;4.90;;
78989;SDS011;68390;52.130;21.218;2023-06-10T03:44:14;8.38;;;5.22;;
78989;SDS011;68390;52.130;21.218;2023-06-10T03:46:40;18.50;;;5.47;;
78989;SDS011;68390;52.130;21.218;2023-06-10T03:49:06;9.20;;;5.30;;
78989;SDS011;68390;52.130;21.218;2023-06-10T03:51:31;7.85;;;5.40;;
78989;SDS011;68390;52.130;21.218;2023-06-10T03:53:57;12.60;;;5.07;;
78989;SDS011;68390;52.130;21.218;2023-06-10T03:56:22;8.27;;;4.90;;
78989;SDS011;68390;52.130;21.218;2023-06-10T03:58:48;11.48;;;4.60;;
78989;SDS011;68390;52.130;21.218;2023-06-10T04:01:13;8.05;;;5.13;;
78989;SDS011;68390;52.130;21.218;2023-06-10T04:03:38;6.65;;;4.53;;
78989;SDS011;68390;52.130;21.218;2023-06-10T04:06:06;8.10;;;4.47;;
78989;SDS011;68390;52.130;21.218;2023-06-10T04:08:32;11.38;;;4.85;;
78989;SDS011;68390;52.130;21.218;2023-06-10T04:10:58;6.97;;;4.85;;
78989;SDS011;68390;52.130;21.218;2023-06-10T04:13:23;8.93;;;4.85;;
78989;SDS011;68390;52.130;21.218;2023-06-10T04:15:49;8.57;;;4.53;;
78989;SDS011;68390;52.130;21.218;2023-06-10T04:18:15;9.68;;;5.13;;
78989;SDS011;68390;52.130;21.218;2023-06-10T04:20:40;6.18;;;4.55;;
78989;SDS011;68390;52.130;21.218;2023-06-10T04:23:06;9.10;;;4.65;;
78989;SDS011;68390;52.130;21.218;2023-06-10T04:25:32;8.90;;;4.85;;
78989;SDS011;68390;52.130;21.218;2023-06-10T04:27:57;11.50;;;4.63;;
78989;SDS011;68390;52.130;21.218;2023-06-10T04:30:23;7.93;;;4.60;;
78989;SDS011;68390;52.130;21.218;2023-06-10T04:32:48;10.68;;;5.22;;
78989;SDS011;68390;52.130;21.218;2023-06-10T04:35:14;10.20;;;4.60;;
78989;SDS011;68390;52.130;21.218;2023-06-10T04:37:40;8.63;;;4.78;;
78989;SDS011;68390;52.130;21.218;2023-06-10T04:40:06;7.13;;;4.05;;
78989;SDS011;68390;52.130;21.218;2023-06-10T04:42:33;8.63;;;4.38;;
78989;SDS011;68390;52.130;21.218;2023-06-10T04:44:59;6.85;;;4.45;;
78989;SDS011;68390;52.130;21.218;2023-06-10T04:47:24;10.75;;;4.70;;
78989;SDS011;68390;52.130;21.218;2023-06-10T04:49:50;8.60;;;4.82;;
78989;SDS011;68390;52.130;21.218;2023-06-10T04:52:16;9.85;;;4.85;;
78989;SDS011;68390;52.130;21.218;2023-06-10T04:54:42;11.20;;;5.13;;
78989;SDS011;68390;52.130;21.218;2023-06-10T04:57:08;8.20;;;4.25;;
78989;SDS011;68390;52.130;21.218;2023-06-10T04:59:34;8.38;;;4.60;;
78989;SDS011;68390;52.130;21.218;2023-06-10T05:02:03;9.57;;;4.53;;
78989;SDS011;68390;52.130;21.218;2023-06-10T05:04:31;6.05;;;4.47;;
78989;SDS011;68390;52.130;21.218;2023-06-10T05:06:57;8.07;;;4.60;;
78989;SDS011;68390;52.130;21.218;2023-06-10T05:09:22;6.75;;;3.95;;
78989;SDS011;68390;52.130;21.218;2023-06-10T05:11:47;8.80;;;4.57;;
78989;SDS011;68390;52.130;21.218;2023-06-10T05:14:13;8.00;;;4.90;;
78989;SDS011;68390;52.130;21.218;2023-06-10T05:16:39;8.30;;;4.45;;
78989;SDS011;68390;52.130;21.218;2023-06-10T05:19:04;10.75;;;4.53;;
78989;SDS011;68390;52.130;21.218;2023-06-10T05:21:30;7.00;;;4.68;;
78989;SDS011;68390;52.130;21.218;2023-06-10T05:23:55;9.65;;;4.40;;
78989;SDS011;68390;52.130;21.218;2023-06-10T05:26:21;6.47;;;4.45;;
78989;SDS011;68390;52.130;21.218;2023-06-10T05:28:47;6.57;;;4.32;;
78989;SDS011;68390;52.130;21.218;2023-06-10T05:31:13;6.10;;;4.47;;
78989;SDS011;68390;52.130;21.218;2023-06-10T05:33:38;8.30;;;4.13;;
78989;SDS011;68390;52.130;21.218;2023-06-10T05:36:04;7.78;;;4.57;;
78989;SDS011;68390;52.130;21.218;2023-06-10T05:38:30;6.78;;;4.30;;
78989;SDS011;68390;52.130;21.218;2023-06-10T05:40:55;6.72;;;4.07;;
78989;SDS011;68390;52.130;21.218;2023-06-10T05:43:22;8.32;;;5.53;;
78989;SDS011;68390;52.130;21.218;2023-06-10T05:45:47;7.95;;;4.47;;
78989;SDS011;68390;52.130;21.218;2023-06-10T05:48:13;8.65;;;4.45;;
78989;SDS011;68390;52.130;21.218;2023-06-10T05:50:38;6.78;;;5.18;;
78989;SDS011;68390;52.130;21.218;2023-06-10T05:53:06;7.30;;;4.70;;
78989;SDS011;68390;52.130;21.218;2023-06-10T05:55:33;9.15;;;4.50;;
78989;SDS011;68390;52.130;21.218;2023-06-10T05:57:59;8.65;;;4.57;;
78989;SDS011;68390;52.130;21.218;2023-06-10T06:00:27;6.60;;;4.43;;
78989;SDS011;68390;52.130;21.218;2023-06-10T06:02:53;10.80;;;4.78;;
78989;SDS011;68390;52.130;21.218;2023-06-10T06:05:19;8.77;;;4.60;;
78989;SDS011;68390;52.130;21.218;2023-06-10T06:07:45;8.38;;;4.75;;
78989;SDS011;68390;52.130;21.218;2023-06-10T06:10:10;7.78;;;4.70;;
78989;SDS011;68390;52.130;21.218;2023-06-10T06:12:35;8.25;;;4.63;;
78989;SDS011;68390;52.130;21.218;2023-06-10T06:15:01;7.25;;;4.88;;
78989;SDS011;68390;52.130;21.218;2023-06-10T06:17:28;7.18;;;4.60;;
78989;SDS011;68390;52.130;21.218;2023-06-10T06:19:53;7.53;;;4.30;;
78989;SDS011;68390;52.130;21.218;2023-06-10T06:22:19;8.93;;;4.50;;
78989;SDS011;68390;52.130;21.218;2023-06-10T06:24:47;6.88;;;4.45;;
78989;SDS011;68390;52.130;21.218;2023-06-10T06:27:12;5.68;;;4.03;;
78989;SDS011;68390;52.130;21.218;2023-06-10T06:29:37;7.93;;;4.57;;
78989;SDS011;68390;52.130;21.218;2023-06-10T06:32:03;9.38;;;4.22;;
78989;SDS011;68390;52.130;21.218;2023-06-10T06:34:29;7.35;;;4.68;;
78989;SDS011;68390;52.130;21.218;2023-06-10T06:36:54;7.47;;;3.95;;
78989;SDS011;68390;52.130;21.218;2023-06-10T06:39:19;6.97;;;4.70;;
78989;SDS011;68390;52.130;21.218;2023-06-10T06:41:45;8.20;;;4.65;;
78989;SDS011;68390;52.130;21.218;2023-06-10T06:44:10;6.57;;;4.75;;
78989;SDS011;68390;52.130;21.218;2023-06-10T06:46:36;9.85;;;4.40;;
78989;SDS011;68390;52.130;21.218;2023-06-10T06:49:01;7.22;;;4.90;;
78989;SDS011;68390;52.130;21.218;2023-06-10T06:51:26;6.55;;;4.35;;
78989;SDS011;68390;52.130;21.218;2023-06-10T06:53:52;11.13;;;4.80;;
78989;SDS011;68390;52.130;21.218;2023-06-10T06:56:19;8.65;;;4.53;;
78989;SDS011;68390;52.130;21.218;2023-06-10T06:58:46;7.10;;;4.95;;
78989;SDS011;68390;52.130;21.218;2023-06-10T07:01:11;8.98;;;4.65;;
78989;SDS011;68390;52.130;21.218;2023-06-10T07:03:37;7.75;;;5.25;;
78989;SDS011;68390;52.130;21.218;2023-06-10T07:06:02;7.97;;;4.80;;
78989;SDS011;68390;52.130;21.218;2023-06-10T07:08:28;6.40;;;4.50;;
78989;SDS011;68390;52.130;21.218;2023-06-10T07:10:54;8.30;;;4.63;;
78989;SDS011;68390;52.130;21.218;2023-06-10T07:13:19;9.77;;;4.82;;
78989;SDS011;68390;52.130;21.218;2023-06-10T07:15:45;9.27;;;5.22;;
78989;SDS011;68390;52.130;21.218;2023-06-10T07:18:11;7.43;;;4.80;;
78989;SDS011;68390;52.130;21.218;2023-06-10T07:20:36;8.20;;;4.82;;
78989;SDS011;68390;52.130;21.218;2023-06-10T07:23:02;8.02;;;4.40;;
78989;SDS011;68390;52.130;21.218;2023-06-10T07:25:27;9.82;;;5.03;;
78989;SDS011;68390;52.130;21.218;2023-06-10T07:27:52;8.57;;;5.30;;
78989;SDS011;68390;52.130;21.218;2023-06-10T07:30:18;10.68;;;5.10;;
78989;SDS011;68390;52.130;21.218;2023-06-10T07:32:43;8.13;;;4.80;;
78989;SDS011;68390;52.130;21.218;2023-06-10T07:35:09;10.90;;;5.43;;
78989;SDS011;68390;52.130;21.218;2023-06-10T07:37:38;9.05;;;4.80;;
78989;SDS011;68390;52.130;21.218;2023-06-10T07:40:04;8.73;;;5.20;;
78989;SDS011;68390;52.130;21.218;2023-06-10T07:42:31;8.63;;;5.60;;
78989;SDS011;68390;52.130;21.218;2023-06-10T07:44:58;12.15;;;5.43;;
78989;SDS011;68390;52.130;21.218;2023-06-10T07:47:23;9.48;;;4.85;;
78989;SDS011;68390;52.130;21.218;2023-06-10T07:49:48;8.85;;;5.00;;
78989;SDS011;68390;52.130;21.218;2023-06-10T07:52:14;9.60;;;5.20;;
78989;SDS011;68390;52.130;21.218;2023-06-10T07:54:39;9.98;;;5.38;;
78989;SDS011;68390;52.130;21.218;2023-06-10T07:57:05;9.50;;;5.53;;
78989;SDS011;68390;52.130;21.218;2023-06-10T07:59:32;9.52;;;4.70;;
78989;SDS011;68390;52.130;21.218;2023-06-10T08:01:58;9.23;;;5.28;;
78989;SDS011;68390;52.130;21.218;2023-06-10T08:04:23;8.65;;;4.72;;
78989;SDS011;68390;52.130;21.218;2023-06-10T08:06:49;9.48;;;4.57;;
78989;SDS011;68390;52.130;21.218;2023-06-10T08:09:14;6.28;;;4.78;;
78989;SDS011;68390;52.130;21.218;2023-06-10T08:11:40;7.07;;;4.95;;
78989;SDS011;68390;52.130;21.218;2023-06-10T08:14:05;6.88;;;5.15;;
78989;SDS011;68390;52.130;21.218;2023-06-10T08:16:31;10.73;;;4.97;;
78989;SDS011;68390;52.130;21.218;2023-06-10T08:18:56;8.68;;;5.10;;
78989;SDS011;68390;52.130;21.218;2023-06-10T08:21:22;8.85;;;4.85;;
78989;SDS011;68390;52.130;21.218;2023-06-10T08:23:47;10.52;;;4.97;;
78989;SDS011;68390;52.130;21.218;2023-06-10T08:26:13;6.22;;;4.40;;
78989;SDS011;68390;52.130;21.218;2023-06-10T08:28:38;10.30;;;6.05;;
78989;SDS011;68390;52.130;21.218;2023-06-10T08:31:04;10.43;;;5.10;;
78989;SDS011;68390;52.130;21.218;2023-06-10T08:33:29;10.50;;;5.55;;
78989;SDS011;68390;52.130;21.218;2023-06-10T08:35:54;12.30;;;4.75;;
78989;SDS011;68390;52.130;21.218;2023-06-10T08:38:20;8.18;;;5.05;;
78989;SDS011;68390;52.130;21.218;2023-06-10T08:40:45;7.97;;;5.30;;
78989;SDS011;68390;52.130;21.218;2023-06-10T08:43:17;7.30;;;5.20;;
78989;SDS011;68390;52.130;21.218;2023-06-10T08:45:48;8.50;;;5.13;;
78989;SDS011;68390;52.130;21.218;2023-06-10T08:48:14;13.68;;;5.72;;
78989;SDS011;68390;52.130;21.218;2023-06-10T08:50:42;11.23;;;5.75;;
78989;SDS011;68390;52.130;21.218;2023-06-10T08:53:08;7.57;;;4.82;;
78989;SDS011;68390;52.130;21.218;2023-06-10T08:55:38;8.73;;;5.00;;
78989;SDS011;68390;52.130;21.218;2023-06-10T08:58:06;6.53;;;4.80;;
78989;SDS011;68390;52.130;21.218;2023-06-10T09:00:32;9.13;;;5.00;;
78989;SDS011;68390;52.130;21.218;2023-06-10T09:02:59;8.32;;;5.05;;
78989;SDS011;68390;52.130;21.218;2023-06-10T09:05:26;10.93;;;5.22;;
78989;SDS011;68390;52.130;21.218;2023-06-10T09:07:52;6.55;;;4.75;;
78989;SDS011;68390;52.130;21.218;2023-06-10T09:10:19;7.55;;;4.63;;
78989;SDS011;68390;52.130;21.218;2023-06-10T09:12:44;6.78;;;4.65;;
78989;SDS011;68390;52.130;21.218;2023-06-10T09:15:10;7.90;;;4.95;;
78989;SDS011;68390;52.130;21.218;2023-06-10T09:17:37;7.65;;;5.03;;
78989;SDS011;68390;52.130;21.218;2023-06-10T09:20:06;9.45;;;5.07;;
78989;SDS011;68390;52.130;21.218;2023-06-10T09:22:32;6.50;;;4.82;;
78989;SDS011;68390;52.130;21.218;2023-06-10T09:25:08;8.52;;;4.43;;
78989;SDS011;68390;52.130;21.218;2023-06-10T09:30:28;8.25;;;4.85;;
78989;SDS011;68390;52.130;21.218;2023-06-10T09:32:55;7.00;;;5.05;;
78989;SDS011;68390;52.130;21.218;2023-06-10T09:35:23;6.55;;;4.57;;
78989;SDS011;68390;52.130;21.218;2023-06-10T09:37:52;8.82;;;4.40;;
78989;SDS011;68390;52.130;21.218;2023-06-10T09:40:20;7.32;;;4.53;;
78989;SDS011;68390;52.130;21.218;2023-06-10T09:42:45;5.70;;;4.65;;
78989;SDS011;68390;52.130;21.218;2023-06-10T09:45:14;11.10;;;4.80;;
78989;SDS011;68390;52.130;21.218;2023-06-10T09:47:39;6.97;;;4.63;;
78989;SDS011;68390;52.130;21.218;2023-06-10T09:50:05;7.50;;;4.50;;
78989;SDS011;68390;52.130;21.218;2023-06-10T09:52:31;6.03;;;4.20;;
78989;SDS011;68390;52.130;21.218;2023-06-10T09:55:00;6.28;;;4.63;;
78989;SDS011;68390;52.130;21.218;2023-06-10T09:57:30;6.03;;;4.50;;
78989;SDS011;68390;52.130;21.218;2023-06-10T09:59:57;9.18;;;4.47;;
78989;SDS011;68390;52.130;21.218;2023-06-10T10:02:23;11.18;;;4.50;;
78989;SDS011;68390;52.130;21.218;2023-06-10T10:04:48;8.55;;;4.93;;
78989;SDS011;68390;52.130;21.218;2023-06-10T10:07:14;7.38;;;4.55;;
78989;SDS011;68390;52.130;21.218;2023-06-10T10:09:39;6.95;;;4.22;;
78989;SDS011;68390;52.130;21.218;2023-06-10T10:12:08;8.40;;;4.78;;
78989;SDS011;68390;52.130;21.218;2023-06-10T10:14:36;10.85;;;4.65;;
78989;SDS011;68390;52.130;21.218;2023-06-10T10:17:02;8.43;;;4.60;;
78989;SDS011;68390;52.130;21.218;2023-06-10T10:19:31;6.45;;;5.03;;
78989;SDS011;68390;52.130;21.218;2023-06-10T10:22:03;6.93;;;4.57;;
78989;SDS011;68390;52.130;21.218;2023-06-10T10:24:41;8.48;;;4.85;;
78989;SDS011;68390;52.130;21.218;2023-06-10T10:27:18;10.70;;;4.90;;
78989;SDS011;68390;52.130;21.218;2023-06-10T10:29:52;6.75;;;4.65;;
78989;SDS011;68390;52.130;21.218;2023-06-10T10:32:18;8.77;;;4.72;;
78989;SDS011;68390;52.130;21.218;2023-06-10T10:35:07;7.03;;;4.75;;
78989;SDS011;68390;52.130;21.218;2023-06-10T10:37:34;9.48;;;5.20;;
78989;SDS011;68390;52.130;21.218;2023-06-10T10:40:01;6.97;;;4.97;;
78989;SDS011;68390;52.130;21.218;2023-06-10T10:42:28;9.00;;;5.32;;
78989;SDS011;68390;52.130;21.218;2023-06-10T10:44:54;9.45;;;4.68;;
78989;SDS011;68390;52.130;21.218;2023-06-10T10:47:21;6.88;;;4.78;;
78989;SDS011;68390;52.130;21.218;2023-06-10T10:49:48;8.10;;;5.10;;
78989;SDS011;68390;52.130;21.218;2023-06-10T10:52:20;8.10;;;5.47;;
78989;SDS011;68390;52.130;21.218;2023-06-10T10:54:45;6.50;;;4.68;;
78989;SDS011;68390;52.130;21.218;2023-06-10T10:57:15;11.38;;;5.90;;
78989;SDS011;68390;52.130;21.218;2023-06-10T11:05:02;7.25;;;5.50;;
78989;SDS011;68390;52.130;21.218;2023-06-10T11:07:29;7.55;;;5.53;;
78989;SDS011;68390;52.130;21.218;2023-06-10T11:10:09;8.68;;;6.07;;
78989;SDS011;68390;52.130;21.218;2023-06-10T11:12:53;7.88;;;5.70;;
78989;SDS011;68390;52.130;21.218;2023-06-10T11:15:21;9.98;;;5.60;;
78989;SDS011;68390;52.130;21.218;2023-06-10T11:23:10;7.03;;;5.88;;
78989;SDS011;68390;52.130;21.218;2023-06-10T11:25:38;8.65;;;6.43;;
78989;SDS011;68390;52.130;21.218;2023-06-10T11:28:27;8.82;;;6.15;;
78989;SDS011;68390;52.130;21.218;2023-06-10T11:30:56;9.57;;;5.90;;
78989;SDS011;68390;52.130;21.218;2023-06-10T11:33:23;11.90;;;6.70;;
78989;SDS011;68390;52.130;21.218;2023-06-10T11:35:50;9.07;;;6.05;;
78989;SDS011;68390;52.130;21.218;2023-06-10T11:38:15;11.80;;;6.07;;
78989;SDS011;68390;52.130;21.218;2023-06-10T11:40:45;7.15;;;5.72;;
78989;SDS011;68390;52.130;21.218;2023-06-10T11:43:15;8.15;;;5.57;;
78989;SDS011;68390;52.130;21.218;2023-06-10T11:45:42;8.07;;;5.72;;
78989;SDS011;68390;52.130;21.218;2023-06-10T11:48:08;8.80;;;5.80;;
78989;SDS011;68390;52.130;21.218;2023-06-10T11:50:35;8.30;;;6.03;;
78989;SDS011;68390;52.130;21.218;2023-06-10T11:53:00;9.45;;;5.95;;
78989;SDS011;68390;52.130;21.218;2023-06-10T11:55:40;7.50;;;6.20;;
78989;SDS011;68390;52.130;21.218;2023-06-10T11:58:12;9.80;;;6.93;;
78989;SDS011;68390;52.130;21.218;2023-06-10T12:03:23;7.05;;;6.05;;
78989;SDS011;68390;52.130;21.218;2023-06-10T12:08:24;8.02;;;6.13;;
78989;SDS011;68390;52.130;21.218;2023-06-10T12:10:50;9.68;;;6.20;;
78989;SDS011;68390;52.130;21.218;2023-06-10T12:13:16;7.30;;;6.43;;
78989;SDS011;68390;52.130;21.218;2023-06-10T12:18:20;9.48;;;6.82;;
78989;SDS011;68390;52.130;21.218;2023-06-10T12:20:49;8.85;;;6.93;;
78989;SDS011;68390;52.130;21.218;2023-06-10T12:23:16;11.45;;;6.13;;
78989;SDS011;68390;52.130;21.218;2023-06-10T12:25:52;9.52;;;6.82;;
78989;SDS011;68390;52.130;21.218;2023-06-10T12:28:22;11.15;;;6.38;;
78989;SDS011;68390;52.130;21.218;2023-06-10T12:30:48;14.00;;;7.28;;
78989;SDS011;68390;52.130;21.218;2023-06-10T12:33:17;9.05;;;6.80;;
78989;SDS011;68390;52.130;21.218;2023-06-10T12:35:50;10.52;;;6.75;;
78989;SDS011;68390;52.130;21.218;2023-06-10T12:38:23;11.32;;;6.78;;
78989;SDS011;68390;52.130;21.218;2023-06-10T12:40:49;9.77;;;7.68;;
78989;SDS011;68390;52.130;21.218;2023-06-10T12:43:24;8.35;;;6.38;;
78989;SDS011;68390;52.130;21.218;2023-06-10T12:45:51;8.25;;;6.82;;
78989;SDS011;68390;52.130;21.218;2023-06-10T12:48:23;7.38;;;6.18;;
78989;SDS011;68390;52.130;21.218;2023-06-10T12:50:52;14.10;;;6.80;;
78989;SDS011;68390;52.130;21.218;2023-06-10T12:53:19;8.85;;;6.53;;
78989;SDS011;68390;52.130;21.218;2023-06-10T12:55:46;11.48;;;6.28;;
78989;SDS011;68390;52.130;21.218;2023-06-10T12:58:12;11.02;;;5.85;;
78989;SDS011;68390;52.130;21.218;2023-06-10T13:00:38;10.85;;;6.60;;
78989;SDS011;68390;52.130;21.218;2023-06-10T13:03:06;10.55;;;6.80;;
78989;SDS011;68390;52.130;21.218;2023-06-10T13:05:32;7.95;;;5.85;;
78989;SDS011;68390;52.130;21.218;2023-06-10T13:07:59;10.88;;;6.35;;
78989;SDS011;68390;52.130;21.218;2023-06-10T13:10:24;9.00;;;6.43;;
78989;SDS011;68390;52.130;21.218;2023-06-10T13:12:51;9.93;;;6.57;;
78989;SDS011;68390;52.130;21.218;2023-06-10T13:15:17;8.00;;;6.03;;
78989;SDS011;68390;52.130;21.218;2023-06-10T13:17:43;8.63;;;6.45;;
78989;SDS011;68390;52.130;21.218;2023-06-10T13:20:10;7.47;;;6.13;;
78989;SDS011;68390;52.130;21.218;2023-06-10T13:22:36;7.50;;;6.55;;
78989;SDS011;68390;52.130;21.218;2023-06-10T13:25:05;12.40;;;6.85;;
78989;SDS011;68390;52.130;21.218;2023-06-10T13:27:32;13.32;;;6.88;;
78989;SDS011;68390;52.130;21.218;2023-06-10T13:29:58;7.20;;;6.50;;
78989;SDS011;68390;52.130;21.218;2023-06-10T13:32:23;10.93;;;6.90;;
78989;SDS011;68390;52.130;21.218;2023-06-10T13:34:49;9.85;;;6.60;;
78989;SDS011;68390;52.130;21.218;2023-06-10T13:37:15;9.50;;;6.25;;
78989;SDS011;68390;52.130;21.218;2023-06-10T13:39:43;9.25;;;6.05;;
78989;SDS011;68390;52.130;21.218;2023-06-10T13:42:09;10.40;;;7.35;;
78989;SDS011;68390;52.130;21.218;2023-06-10T13:44:35;9.07;;;6.47;;
78989;SDS011;68390;52.130;21.218;2023-06-10T13:47:02;9.85;;;6.50;;
78989;SDS011;68390;52.130;21.218;2023-06-10T13:49:28;8.95;;;6.43;;
78989;SDS011;68390;52.130;21.218;2023-06-10T13:51:53;9.93;;;6.43;;
78989;SDS011;68390;52.130;21.218;2023-06-10T13:54:19;9.40;;;6.63;;
78989;SDS011;68390;52.130;21.218;2023-06-10T13:56:44;10.63;;;6.63;;
78989;SDS011;68390;52.130;21.218;2023-06-10T13:59:10;10.35;;;6.22;;
78989;SDS011;68390;52.130;21.218;2023-06-10T14:01:35;14.50;;;6.60;;
78989;SDS011;68390;52.130;21.218;2023-06-10T14:04:01;9.88;;;6.45;;
78989;SDS011;68390;52.130;21.218;2023-06-10T14:06:27;6.85;;;5.93;;
78989;SDS011;68390;52.130;21.218;2023-06-10T14:08:53;7.80;;;6.07;;
78989;SDS011;68390;52.130;21.218;2023-06-10T14:11:19;10.95;;;6.63;;
78989;SDS011;68390;52.130;21.218;2023-06-10T14:13:46;8.90;;;5.93;;
78989;SDS011;68390;52.130;21.218;2023-06-10T14:16:11;11.23;;;6.63;;
78989;SDS011;68390;52.130;21.218;2023-06-10T14:18:37;13.15;;;7.65;;
78989;SDS011;68390;52.130;21.218;2023-06-10T14:21:03;8.20;;;6.65;;
78989;SDS011;68390;52.130;21.218;2023-06-10T14:23:28;9.55;;;6.10;;
78989;SDS011;68390;52.130;21.218;2023-06-10T14:25:53;10.70;;;6.60;;
78989;SDS011;68390;52.130;21.218;2023-06-10T14:28:19;10.93;;;6.95;;
78989;SDS011;68390;52.130;21.218;2023-06-10T14:30:44;11.88;;;7.18;;
78989;SDS011;68390;52.130;21.218;2023-06-10T14:33:10;11.07;;;7.10;;
78989;SDS011;68390;52.130;21.218;2023-06-10T14:35:35;9.32;;;7.00;;
78989;SDS011;68390;52.130;21.218;2023-06-10T14:38:01;11.35;;;6.75;;
78989;SDS011;68390;52.130;21.218;2023-06-10T14:40:26;9.07;;;6.20;;
78989;SDS011;68390;52.130;21.218;2023-06-10T14:42:54;7.40;;;6.15;;
78989;SDS011;68390;52.130;21.218;2023-06-10T14:45:20;9.50;;;5.85;;
78989;SDS011;68390;52.130;21.218;2023-06-10T14:47:47;8.63;;;6.25;;
78989;SDS011;68390;52.130;21.218;2023-06-10T14:50:13;6.97;;;5.82;;
78989;SDS011;68390;52.130;21.218;2023-06-10T14:52:38;11.20;;;6.82;;
78989;SDS011;68390;52.130;21.218;2023-06-10T14:55:04;8.80;;;6.22;;